Veterans Hospital, Pennsylvania
Current Conditions -  °F | °C
As of 11:53 AM on Wednesday 22 Oct 2014 (Local Time) from KAGC Reporting Station
Overcast Overcast  
Wind Chill: 44°   Ceiling: 1300
Heat Index: 48°   Visibility: 10mi
Dew Point: 41°   Wind: 8mph
Humidity: 77%   Direction: 350°N
Pressure: 30.15"   Gusts: 17mph
Location:  40.4765°N, 79.8948°W
Report Text: KAGC 221553Z 35007G15KT 10SM OVC013 09/05 A3015 RMK AO2 SLP220 T00890050
Loading
Personal Weather Stations






























Interactive Weather Map
Tropical Storm Tracking
New forecast layout! Learn more

10-Day Weather Forecast

Advertisements
Track Severe Weather on mobile